KARM

Wharton Regional Airport

Wharton, Texas, USA
METAR KARM 250615Z AUTO 13005KT 10SM CLR 25/23 A2994 RMK AO2 T02500228
Observed Flight Rules
Jun-25 @ 06:15 UTC (7 minutes ago) Visual Flight Rules
Wind Visibility Clouds
130° at 5 knots 10 miles
  • Clear skies
Temperatures Readings
Current 25°C / 77°F
Dewpoint 23°C / 73°F
Humidity 89%
Altimeter 29.94" Hg
Pressure 1014 hPa
Elevation 31
METAR KARM 250615Z AUTO 13005KT 10SM CLR 25/23 A2994 RMK AO2 T02500228
Observed Flight Rules
Jun-25 @ 06:15 UTC
(7 minutes ago)
VFR
Wind Visibility
130° at 5 knots 10 miles
Clouds
  • Clear skies
Temperature Dewpoint
25°C / 77°F 23°C / 73°F
Humidity Altimeter Pressure
89% 29.94" Hg 1014 hPa